createdAt,value
2023-02-17T00:01:22.310Z,7.40
2023-02-17T00:03:49.404Z,7.40
2023-02-17T00:06:17.002Z,7.40
2023-02-17T00:08:43.865Z,7.40
2023-02-17T00:11:10.701Z,7.20
2023-02-17T00:13:37.321Z,9.30
2023-02-17T00:16:11.395Z,7.10
2023-02-17T00:18:38.065Z,7.00
2023-02-17T00:21:18.219Z,6.90
2023-02-17T00:23:45.626Z,6.80
2023-02-17T00:26:12.493Z,6.80
2023-02-17T00:28:39.356Z,6.90
2023-02-17T00:31:10.319Z,6.80
2023-02-17T00:33:37.336Z,6.80
2023-02-17T00:36:07.939Z,6.70
2023-02-17T00:38:34.624Z,6.70
2023-02-17T00:41:01.246Z,6.60
2023-02-17T00:43:27.880Z,6.70
2023-02-17T00:45:54.658Z,6.70
2023-02-17T00:48:21.643Z,6.70
2023-02-17T00:50:48.506Z,6.70
2023-02-17T00:53:15.194Z,6.70
2023-02-17T00:55:41.782Z,6.70
2023-02-17T00:58:08.451Z,8.60
2023-02-17T01:00:35.115Z,6.70
2023-02-17T01:03:01.771Z,6.70
2023-02-17T01:05:28.448Z,6.70
2023-02-17T01:07:55.576Z,6.80
2023-02-17T01:10:22.223Z,6.80
2023-02-17T01:12:48.929Z,6.80
2023-02-17T01:15:15.568Z,6.80
2023-02-17T01:17:42.291Z,6.60
2023-02-17T01:20:09.220Z,6.50
2023-02-17T01:22:37.612Z,6.40
2023-02-17T01:25:04.393Z,6.40
2023-02-17T01:27:31.227Z,6.30
2023-02-17T01:29:57.855Z,6.40
2023-02-17T01:32:24.518Z,6.30
2023-02-17T01:34:51.335Z,8.10
2023-02-17T01:37:18.006Z,6.40
2023-02-17T01:39:44.583Z,6.50
2023-02-17T01:42:18.339Z,6.70
2023-02-17T01:45:03.909Z,6.70
2023-02-17T01:47:30.578Z,6.80
2023-02-17T01:49:57.419Z,7.00
2023-02-17T01:52:26.372Z,7.10
2023-02-17T01:54:57.436Z,7.10
2023-02-17T01:57:25.857Z,7.10
2023-02-17T01:59:52.621Z,7.20
2023-02-17T02:02:19.868Z,7.00
2023-02-17T02:04:48.123Z,6.80
2023-02-17T02:07:17.658Z,6.70
2023-02-17T02:09:47.667Z,6.60
2023-02-17T02:12:17.367Z,6.50
2023-02-17T02:14:44.046Z,6.30
2023-02-17T02:17:15.322Z,6.20
2023-02-17T02:20:11.008Z,6.00
2023-02-17T02:22:51.633Z,5.90
2023-02-17T02:25:18.288Z,5.80
2023-02-17T02:27:47.954Z,5.80
2023-02-17T02:30:17.560Z,5.70
2023-02-17T02:32:49.624Z,5.70
2023-02-17T02:35:26.744Z,5.70
2023-02-17T02:37:57.104Z,5.80
2023-02-17T02:40:27.067Z,5.80
2023-02-17T02:42:54.512Z,7.10
2023-02-17T02:45:21.409Z,6.20
2023-02-17T02:47:55.496Z,6.30
2023-02-17T02:50:28.286Z,6.60
2023-02-17T02:53:05.438Z,6.70
2023-02-17T02:55:50.855Z,6.80
2023-02-17T02:58:20.287Z,6.80
2023-02-17T03:00:54.455Z,6.90
2023-02-17T03:03:21.246Z,6.90
2023-02-17T03:05:59.999Z,7.00
2023-02-17T03:08:32.298Z,6.90
2023-02-17T03:11:00.619Z,6.80
2023-02-17T03:13:27.263Z,6.70
2023-02-17T03:15:54.033Z,6.60
2023-02-17T03:18:20.747Z,6.60
2023-02-17T03:20:57.644Z,6.40
2023-02-17T03:23:24.415Z,6.30
2023-02-17T03:25:51.410Z,7.30
2023-02-17T03:28:18.876Z,6.20
2023-02-17T03:30:45.598Z,6.20
2023-02-17T03:33:12.340Z,8.00
2023-02-17T03:35:39.031Z,6.10
2023-02-17T03:38:05.763Z,6.00
2023-02-17T03:40:32.777Z,6.00
2023-02-17T03:42:59.470Z,5.90
2023-02-17T03:45:26.150Z,5.80
2023-02-17T03:47:52.990Z,8.70
2023-02-17T03:50:19.671Z,5.70
2023-02-17T03:52:46.534Z,5.60
2023-02-17T03:55:13.297Z,5.60
2023-02-17T03:57:39.963Z,5.60
2023-02-17T04:00:07.297Z,5.60
2023-02-17T04:02:33.975Z,5.60
2023-02-17T04:05:00.631Z,5.60
2023-02-17T04:07:27.359Z,5.60
2023-02-17T04:09:54.122Z,5.60
2023-02-17T04:12:20.793Z,5.60
2023-02-17T04:14:47.486Z,5.60
2023-02-17T04:17:14.218Z,5.60
2023-02-17T04:19:40.938Z,5.60
2023-02-17T04:22:09.089Z,5.70
2023-02-17T04:24:37.133Z,5.70
2023-02-17T04:27:04.754Z,5.80
2023-02-17T04:29:31.832Z,5.80
2023-02-17T04:31:58.680Z,5.90
2023-02-17T04:34:25.518Z,5.90
2023-02-17T04:36:52.129Z,6.00
2023-02-17T04:39:19.206Z,6.00
2023-02-17T04:41:45.925Z,6.00
2023-02-17T04:44:12.586Z,6.10
2023-02-17T04:46:39.279Z,6.10
2023-02-17T04:49:05.934Z,6.20
2023-02-17T04:51:32.642Z,6.30
2023-02-17T04:53:59.303Z,6.40
2023-02-17T04:56:26.060Z,6.50
2023-02-17T04:58:52.804Z,6.60
2023-02-17T05:01:19.688Z,6.60
2023-02-17T05:03:46.314Z,6.70
2023-02-17T05:06:13.025Z,6.80
2023-02-17T05:08:39.820Z,6.80
2023-02-17T05:11:06.504Z,6.90
2023-02-17T05:13:33.343Z,7.00
2023-02-17T05:16:00.042Z,7.00
2023-02-17T05:18:26.768Z,7.00
2023-02-17T05:20:53.468Z,7.00
2023-02-17T05:23:20.127Z,7.00
2023-02-17T05:25:46.814Z,7.00
2023-02-17T05:28:13.433Z,7.00
2023-02-17T05:30:40.208Z,6.90
2023-02-17T05:33:06.863Z,9.00
2023-02-17T05:35:35.102Z,6.90
2023-02-17T05:38:01.904Z,7.00
2023-02-17T05:40:28.642Z,7.00
2023-02-17T05:42:55.388Z,6.90
2023-02-17T05:45:22.100Z,6.90
2023-02-17T05:47:48.798Z,7.00
2023-02-17T05:50:15.498Z,6.90
2023-02-17T05:52:42.224Z,8.10
2023-02-17T05:55:08.971Z,7.00
2023-02-17T05:57:35.681Z,7.10
2023-02-17T06:00:02.695Z,7.10
2023-02-17T06:02:29.390Z,7.10
2023-02-17T06:04:56.126Z,7.20
2023-02-17T06:07:22.944Z,7.20
2023-02-17T06:09:49.583Z,7.30
2023-02-17T06:12:16.212Z,7.30
2023-02-17T06:14:42.930Z,7.20
2023-02-17T06:17:10.255Z,9.50
2023-02-17T06:19:36.895Z,7.20
2023-02-17T06:22:03.549Z,7.30
2023-02-17T06:24:30.238Z,7.20
2023-02-17T06:26:56.895Z,8.50
2023-02-17T06:29:23.556Z,7.20
2023-02-17T06:31:50.401Z,7.20
2023-02-17T06:34:17.376Z,7.20
2023-02-17T06:36:44.091Z,7.20
2023-02-17T06:39:10.766Z,7.30
2023-02-17T06:41:37.441Z,7.20
2023-02-17T06:44:04.151Z,7.20
2023-02-17T06:46:30.815Z,7.20
2023-02-17T06:48:57.493Z,9.50
2023-02-17T06:51:24.150Z,7.30
2023-02-17T06:53:50.749Z,9.20
2023-02-17T06:56:17.949Z,7.40
2023-02-17T06:58:45.506Z,7.40
2023-02-17T07:01:20.404Z,9.10
2023-02-17T07:03:47.135Z,7.50
2023-02-17T07:06:14.085Z,7.60
2023-02-17T07:08:41.140Z,7.60
2023-02-17T07:11:08.870Z,7.70
2023-02-17T07:13:35.613Z,7.70
2023-02-17T07:16:02.299Z,9.10
2023-02-17T07:18:29.024Z,7.70
2023-02-17T07:20:55.712Z,7.80
2023-02-17T07:23:22.367Z,7.70
2023-02-17T07:25:48.984Z,7.70
2023-02-17T07:28:15.690Z,7.80
2023-02-17T07:30:43.515Z,7.70
2023-02-17T07:33:10.692Z,7.80
2023-02-17T07:35:41.922Z,7.80
2023-02-17T07:38:08.846Z,7.80
2023-02-17T07:40:35.612Z,7.90
2023-02-17T07:43:02.243Z,7.90
2023-02-17T07:45:28.953Z,8.00
2023-02-17T07:47:55.597Z,8.00
2023-02-17T07:50:22.254Z,8.00
2023-02-17T07:52:50.194Z,8.00
2023-02-17T07:55:16.865Z,9.40
2023-02-17T07:57:43.504Z,8.10
2023-02-17T08:00:10.987Z,8.10
2023-02-17T08:02:37.662Z,8.20
2023-02-17T08:05:04.334Z,8.20
2023-02-17T08:07:32.922Z,8.20
2023-02-17T08:10:18.293Z,8.30
2023-02-17T08:13:03.503Z,8.30
2023-02-17T08:15:32.540Z,8.40
2023-02-17T08:18:00.738Z,8.40
2023-02-17T08:20:27.846Z,8.50
2023-02-17T08:22:54.474Z,8.50
2023-02-17T08:25:21.099Z,8.50
2023-02-17T08:27:47.715Z,8.60
2023-02-17T08:30:14.440Z,8.60
2023-02-17T08:32:41.155Z,8.60
2023-02-17T08:35:07.990Z,9.70
2023-02-17T08:37:34.636Z,8.70
2023-02-17T08:40:01.489Z,8.70
2023-02-17T08:42:28.213Z,8.80
2023-02-17T08:44:55.198Z,8.80
2023-02-17T08:47:21.811Z,10.20
2023-02-17T08:49:48.511Z,8.90
2023-02-17T08:52:15.184Z,10.00
2023-02-17T08:54:41.873Z,9.00
2023-02-17T08:57:08.549Z,8.90
2023-02-17T08:59:35.195Z,8.90
2023-02-17T09:02:01.862Z,10.20
2023-02-17T09:04:28.588Z,8.90
2023-02-17T09:06:56.905Z,8.90
2023-02-17T09:09:26.950Z,10.80
2023-02-17T09:11:55.671Z,9.80
2023-02-17T09:14:24.054Z,8.90
2023-02-17T09:16:51.692Z,8.90
2023-02-17T09:19:18.597Z,8.90
2023-02-17T09:21:45.401Z,11.20
2023-02-17T09:24:12.308Z,10.50
2023-02-17T09:26:39.149Z,8.90
2023-02-17T09:29:06.086Z,10.00
2023-02-17T09:31:33.963Z,9.00
2023-02-17T09:34:00.968Z,9.10
2023-02-17T09:36:29.702Z,9.10
2023-02-17T09:38:56.471Z,9.20
2023-02-17T09:41:23.307Z,9.30
2023-02-17T09:43:50.437Z,9.30
2023-02-17T09:46:26.352Z,11.40
2023-02-17T09:48:54.730Z,9.40
2023-02-17T09:51:21.660Z,9.40
2023-02-17T09:54:03.308Z,9.60
2023-02-17T09:56:35.067Z,9.60
2023-02-17T09:59:34.524Z,9.70
2023-02-17T10:02:06.484Z,9.80
2023-02-17T10:04:39.593Z,9.90
2023-02-17T10:07:09.660Z,9.90
2023-02-17T10:09:40.929Z,12.80
2023-02-17T10:12:18.273Z,10.00
2023-02-17T10:15:05.843Z,10.00
2023-02-17T10:17:55.871Z,10.20
2023-02-17T10:20:23.918Z,10.30
2023-02-17T10:22:52.709Z,10.40
2023-02-17T10:25:24.881Z,10.80
2023-02-17T10:27:56.778Z,13.60
2023-02-17T10:30:42.051Z,12.70
2023-02-17T10:33:28.777Z,10.60
2023-02-17T10:36:03.971Z,10.70
2023-02-17T10:38:33.712Z,10.60
2023-02-17T10:41:01.881Z,10.60
2023-02-17T10:43:30.947Z,12.10
2023-02-17T10:45:59.018Z,12.20
2023-02-17T10:48:33.578Z,12.50
2023-02-17T10:51:01.030Z,10.80
2023-02-17T10:53:32.856Z,12.60
2023-02-17T10:56:04.474Z,10.90
2023-02-17T10:58:34.149Z,12.10
2023-02-17T11:01:02.823Z,13.70
2023-02-17T11:03:31.909Z,11.70
2023-02-17T11:05:59.935Z,12.70
2023-02-17T11:08:32.792Z,14.00
2023-02-17T11:11:04.593Z,11.20
2023-02-17T11:13:40.140Z,13.50
2023-02-17T11:16:07.535Z,11.30
2023-02-17T11:18:36.193Z,13.00
2023-02-17T11:21:08.151Z,11.40
2023-02-17T11:23:35.322Z,13.60
2023-02-17T11:26:08.389Z,11.50
2023-02-17T11:28:35.330Z,13.10
2023-02-17T11:31:07.410Z,13.70
2023-02-17T11:33:38.644Z,14.30
2023-02-17T11:36:06.604Z,11.80
2023-02-17T11:38:41.106Z,11.70
2023-02-17T11:41:08.171Z,13.90
2023-02-17T11:43:35.585Z,14.10
2023-02-17T11:46:23.142Z,11.70
2023-02-17T11:48:59.140Z,11.60
2023-02-17T11:51:35.197Z,11.60
2023-02-17T11:54:22.973Z,14.60
2023-02-17T11:57:12.954Z,11.60
2023-02-17T11:59:48.774Z,11.50
2023-02-17T12:02:17.807Z,11.40
2023-02-17T12:05:03.443Z,11.40
2023-02-17T12:07:35.940Z,11.30
2023-02-17T12:10:04.631Z,11.20
2023-02-17T12:12:38.022Z,11.70
2023-02-17T12:15:07.628Z,11.30
2023-02-17T12:17:53.257Z,11.30
2023-02-17T12:20:29.195Z,11.30
2023-02-17T12:23:06.697Z,11.50
2023-02-17T12:25:33.992Z,11.50
2023-02-17T12:28:30.051Z,13.50
2023-02-17T12:31:03.540Z,11.50
2023-02-17T12:33:42.384Z,11.60
2023-02-17T12:36:10.667Z,11.60
2023-02-17T12:38:39.690Z,13.20
2023-02-17T12:41:09.763Z,14.50
2023-02-17T12:43:47.375Z,11.70
2023-02-17T12:46:28.746Z,11.70
2023-02-17T12:49:14.239Z,11.70
2023-02-17T12:51:52.474Z,11.80
2023-02-17T12:54:23.418Z,11.90
2023-02-17T12:56:58.088Z,14.80
2023-02-17T12:59:41.546Z,12.00
2023-02-17T13:02:14.597Z,12.10
2023-02-17T13:04:42.521Z,12.10
2023-02-17T13:07:28.167Z,12.20
2023-02-17T13:09:56.033Z,12.30
2023-02-17T13:12:22.837Z,12.30
2023-02-17T13:14:49.504Z,14.30
2023-02-17T13:17:30.242Z,13.20
2023-02-17T13:20:03.059Z,12.30
2023-02-17T13:22:30.104Z,12.30
2023-02-17T13:24:56.955Z,14.50
2023-02-17T13:27:32.541Z,12.80
2023-02-17T13:30:04.845Z,12.00
2023-02-17T13:32:35.911Z,12.10
2023-02-17T13:35:05.975Z,12.00
2023-02-17T13:37:32.542Z,12.00
2023-02-17T13:39:59.902Z,13.90
2023-02-17T13:42:32.871Z,13.00
2023-02-17T13:44:59.882Z,12.00
2023-02-17T13:47:29.798Z,12.70
2023-02-17T13:49:57.454Z,12.10
2023-02-17T13:52:28.639Z,12.60
2023-02-17T13:54:56.298Z,12.20
2023-02-17T13:57:24.203Z,12.20
2023-02-17T13:59:50.850Z,12.80
2023-02-17T14:02:35.031Z,12.10
2023-02-17T14:05:06.502Z,13.10
2023-02-17T14:07:34.893Z,13.30
2023-02-17T14:10:01.580Z,12.10
2023-02-17T14:12:28.506Z,12.00
2023-02-17T14:14:55.195Z,11.90
2023-02-17T14:17:31.515Z,11.80
2023-02-17T14:20:00.840Z,11.80
2023-02-17T14:22:30.380Z,14.00
2023-02-17T14:25:13.029Z,11.80
2023-02-17T14:27:43.899Z,11.80
2023-02-17T14:30:15.107Z,11.80
2023-02-17T14:32:41.921Z,11.80
2023-02-17T14:35:08.622Z,11.80
2023-02-17T14:37:36.937Z,11.70
2023-02-17T14:40:04.591Z,13.50
2023-02-17T14:42:31.246Z,14.50
2023-02-17T14:44:57.893Z,13.30
2023-02-17T14:47:24.622Z,12.80
2023-02-17T14:49:51.337Z,14.00
2023-02-17T14:52:21.949Z,13.00
2023-02-17T14:54:48.994Z,11.20
2023-02-17T14:57:16.131Z,11.50
2023-02-17T14:59:43.188Z,11.50
2023-02-17T15:02:17.839Z,14.60
2023-02-17T15:04:44.761Z,11.40
2023-02-17T15:07:12.426Z,11.30
2023-02-17T15:09:39.568Z,11.70
2023-02-17T15:12:28.168Z,11.80
2023-02-17T15:14:55.087Z,11.30
2023-02-17T15:17:21.906Z,12.30
2023-02-17T15:19:49.392Z,11.20
2023-02-17T15:22:16.163Z,13.70
2023-02-17T15:24:42.898Z,14.30
2023-02-17T15:27:14.093Z,12.70
2023-02-17T15:29:40.854Z,11.20
2023-02-17T15:32:12.644Z,14.50
2023-02-17T15:34:39.461Z,11.10
2023-02-17T15:37:06.226Z,14.90
2023-02-17T15:39:32.932Z,11.10
2023-02-17T15:42:04.694Z,14.00
2023-02-17T15:44:36.446Z,11.80
2023-02-17T15:47:03.317Z,11.00
2023-02-17T15:49:30.036Z,11.00
2023-02-17T15:51:56.789Z,11.60
2023-02-17T15:54:23.557Z,12.90
2023-02-17T15:56:51.826Z,14.30
2023-02-17T15:59:20.041Z,15.10
2023-02-17T16:01:47.013Z,13.60
2023-02-17T16:04:14.566Z,14.90
2023-02-17T16:06:41.504Z,10.90
2023-02-17T16:09:08.560Z,10.90
2023-02-17T16:11:36.458Z,13.50
2023-02-17T16:14:03.203Z,10.90
2023-02-17T16:16:36.156Z,12.70
2023-02-17T16:19:02.937Z,10.90
2023-02-17T16:21:29.623Z,12.50
2023-02-17T16:23:59.838Z,13.00
2023-02-17T16:26:34.691Z,12.00
2023-02-17T16:29:01.932Z,10.80
2023-02-17T16:31:28.732Z,10.80
2023-02-17T16:34:00.250Z,10.80
2023-02-17T16:36:29.922Z,10.80
2023-02-17T16:38:56.697Z,12.30
2023-02-17T16:41:23.298Z,11.40
2023-02-17T16:43:49.970Z,12.30
2023-02-17T16:46:36.868Z,12.40
2023-02-17T16:49:08.354Z,12.10
2023-02-17T16:51:35.040Z,13.30
2023-02-17T16:54:01.662Z,11.30
2023-02-17T16:56:35.580Z,10.60
2023-02-17T16:59:02.231Z,10.60
2023-02-17T17:01:29.122Z,10.70
2023-02-17T17:03:55.877Z,10.60
2023-02-17T17:06:23.735Z,11.70
2023-02-17T17:08:50.776Z,10.60
2023-02-17T17:11:18.915Z,11.60
2023-02-17T17:13:45.804Z,10.60
2023-02-17T17:16:13.790Z,12.80
2023-02-17T17:18:40.597Z,10.60
2023-02-17T17:21:07.331Z,11.90
2023-02-17T17:23:34.016Z,10.50
2023-02-17T17:26:00.665Z,12.00
2023-02-17T17:28:27.324Z,13.70
2023-02-17T17:30:53.958Z,13.30
2023-02-17T17:33:20.640Z,10.60
2023-02-17T17:35:47.322Z,10.60
2023-02-17T17:38:15.474Z,10.60
2023-02-17T17:40:53.149Z,10.60
2023-02-17T17:43:21.118Z,10.50
2023-02-17T17:45:48.707Z,10.50
2023-02-17T17:48:15.687Z,10.60
2023-02-17T17:50:42.858Z,10.60
2023-02-17T17:53:09.818Z,11.30
2023-02-17T17:55:36.749Z,10.60
2023-02-17T17:58:03.444Z,10.60
2023-02-17T18:00:30.096Z,10.60
2023-02-17T18:02:56.805Z,10.60
2023-02-17T18:05:23.702Z,12.70
2023-02-17T18:07:50.985Z,10.60
2023-02-17T18:10:17.689Z,10.60
2023-02-17T18:12:45.544Z,11.60
2023-02-17T18:15:12.195Z,10.50
2023-02-17T18:17:40.458Z,13.60
2023-02-17T18:20:10.515Z,10.50
2023-02-17T18:22:37.453Z,10.50
2023-02-17T18:25:04.350Z,10.70
2023-02-17T18:27:36.750Z,10.50
2023-02-17T18:30:03.610Z,11.20
2023-02-17T18:32:30.270Z,10.50
2023-02-17T18:34:58.475Z,10.50
2023-02-17T18:37:25.324Z,10.50
2023-02-17T18:39:51.918Z,10.50
2023-02-17T18:42:18.578Z,10.50
2023-02-17T18:44:45.225Z,10.40
2023-02-17T18:47:11.845Z,10.50
2023-02-17T18:49:38.431Z,10.40
2023-02-17T18:52:05.128Z,11.50
2023-02-17T18:54:31.788Z,12.50
2023-02-17T18:56:58.615Z,10.50
2023-02-17T18:59:25.344Z,10.40
2023-02-17T19:01:52.005Z,10.40
2023-02-17T19:04:18.614Z,10.40
2023-02-17T19:06:45.303Z,10.40
2023-02-17T19:09:11.958Z,12.00
2023-02-17T19:11:38.648Z,11.20
2023-02-17T19:14:05.304Z,13.00
2023-02-17T19:16:32.688Z,12.30
2023-02-17T19:18:59.814Z,10.40
2023-02-17T19:21:26.718Z,10.40
2023-02-17T19:23:53.552Z,10.50
2023-02-17T19:26:20.460Z,11.80
2023-02-17T19:28:47.178Z,11.80
2023-02-17T19:31:15.462Z,10.30
2023-02-17T19:33:43.074Z,11.10
2023-02-17T19:36:14.736Z,10.30
2023-02-17T19:38:41.373Z,10.20
2023-02-17T19:41:09.389Z,10.80
2023-02-17T19:43:36.073Z,10.30
2023-02-17T19:46:03.248Z,10.20
2023-02-17T19:48:30.141Z,13.00
2023-02-17T19:51:01.113Z,11.60
2023-02-17T19:53:28.038Z,10.20
2023-02-17T19:55:54.760Z,10.20
2023-02-17T19:58:21.442Z,10.20
2023-02-17T20:00:48.262Z,10.10
2023-02-17T20:03:15.222Z,10.90
2023-02-17T20:05:42.059Z,12.40
2023-02-17T20:08:08.835Z,10.20
2023-02-17T20:10:38.958Z,12.00
2023-02-17T20:13:05.617Z,10.30
2023-02-17T20:15:32.547Z,10.30
2023-02-17T20:17:59.194Z,10.30
2023-02-17T20:20:25.827Z,10.30
2023-02-17T20:22:52.550Z,11.20
2023-02-17T20:25:19.191Z,12.50
2023-02-17T20:27:45.815Z,11.50
2023-02-17T20:30:12.735Z,13.00
2023-02-17T20:32:39.526Z,10.30
2023-02-17T20:35:06.309Z,10.30
2023-02-17T20:37:33.048Z,10.30
2023-02-17T20:39:59.672Z,10.30
2023-02-17T20:42:26.293Z,10.40
2023-02-17T20:44:54.464Z,11.70
2023-02-17T20:47:21.067Z,10.30
2023-02-17T20:49:47.841Z,10.30
2023-02-17T20:52:14.571Z,10.30
2023-02-17T20:54:41.183Z,10.30
2023-02-17T20:57:13.191Z,10.20
2023-02-17T20:59:40.054Z,10.20
2023-02-17T21:02:07.105Z,10.20
2023-02-17T21:04:33.873Z,10.70
2023-02-17T21:07:01.592Z,10.20
2023-02-17T21:09:28.254Z,10.20
2023-02-17T21:11:54.891Z,10.20
2023-02-17T21:14:21.538Z,10.20
2023-02-17T21:16:48.282Z,10.20
2023-02-17T21:19:15.427Z,10.10
2023-02-17T21:21:42.155Z,11.40
2023-02-17T21:24:09.015Z,10.20
2023-02-17T21:26:36.105Z,10.10
2023-02-17T21:29:02.875Z,10.20
2023-02-17T21:31:30.077Z,10.20
2023-02-17T21:33:58.040Z,10.20
2023-02-17T21:36:24.702Z,10.10
2023-02-17T21:38:51.459Z,11.40
2023-02-17T21:41:19.520Z,10.10
2023-02-17T21:44:04.953Z,10.20
2023-02-17T21:46:31.745Z,10.10
2023-02-17T21:48:59.005Z,10.70
2023-02-17T21:51:25.787Z,10.10
2023-02-17T21:53:53.165Z,10.10
2023-02-17T21:56:20.697Z,10.10
2023-02-17T21:58:47.690Z,10.10
2023-02-17T22:01:14.990Z,10.10
2023-02-17T22:03:41.701Z,10.10
2023-02-17T22:06:19.446Z,10.00
2023-02-17T22:08:46.208Z,10.00
2023-02-17T22:11:16.537Z,9.90
2023-02-17T22:13:43.274Z,9.90
2023-02-17T22:16:10.501Z,9.90
2023-02-17T22:18:37.374Z,9.90
2023-02-17T22:21:07.376Z,9.80
2023-02-17T22:23:34.086Z,9.80
2023-02-17T22:26:00.855Z,9.80
2023-02-17T22:28:27.558Z,11.30
2023-02-17T22:30:54.226Z,9.80
2023-02-17T22:33:20.894Z,9.80
2023-02-17T22:35:56.133Z,9.80
2023-02-17T22:38:22.853Z,11.50
2023-02-17T22:40:49.588Z,9.80
2023-02-17T22:43:16.318Z,9.80
2023-02-17T22:45:42.997Z,9.80
2023-02-17T22:48:09.734Z,9.80
2023-02-17T22:50:40.035Z,10.30
2023-02-17T22:53:06.700Z,9.80
2023-02-17T22:55:33.430Z,9.80
2023-02-17T22:58:00.194Z,10.70
2023-02-17T23:00:26.901Z,9.80
2023-02-17T23:02:53.637Z,9.80
2023-02-17T23:05:20.612Z,9.90
2023-02-17T23:07:47.317Z,9.90
2023-02-17T23:10:14.031Z,10.50
2023-02-17T23:12:40.690Z,9.80
2023-02-17T23:15:07.464Z,11.90
2023-02-17T23:17:54.145Z,9.80
2023-02-17T23:20:20.905Z,9.80
2023-02-17T23:22:47.628Z,9.80
2023-02-17T23:25:14.368Z,9.80
2023-02-17T23:27:41.107Z,9.80
2023-02-17T23:30:09.167Z,9.90
2023-02-17T23:32:35.931Z,9.90
2023-02-17T23:35:03.179Z,9.90
2023-02-17T23:37:29.937Z,9.80
2023-02-17T23:39:56.589Z,9.80
2023-02-17T23:42:23.290Z,9.80
2023-02-17T23:44:50.032Z,9.80
2023-02-17T23:47:16.765Z,9.80
2023-02-17T23:49:43.413Z,9.80
2023-02-17T23:52:11.100Z,9.80
2023-02-17T23:54:37.913Z,9.80
2023-02-17T23:57:04.673Z,9.80
2023-02-17T23:59:32.110Z,9.70
